»·PEaware :: UAL576 KBUR-KSLC

UAL576 :: KBUR-KSLC

FLIGHT INFORMATION

Flight Status: Arrived
Operator:
United Airlines
More flights by this operator :: More flights under this callsign
Pilot: Anonymous 8274 (8274)
Aircraft: BOEING 737-200
(B732)
More flights by this aircraft type
Origin: KBUR Bob Hope-Burbank
United States
Destination: KSLC Salt Lake City Intl
United States
More flights between these airports :: More routes between these airports
Route: VNY3 DAG J9 LAS J76 CORKR J11 BCE JAMMN5
File this flight plan on PilotEdge
Remarks:
Altitude:
(Current/Filed)
31,000ft
Speed:
(Current/Filed)
450kts
Departed: 26-Jan-18 09:43 PM
Arrived: 26-Jan-18 11:30 PM
Distance/Time
Traveled:
499nm/1:47
Distance/Time
To Go:
Arrived

Flight Plot

Page will automatically refresh every two minutes.

Flight plan parsing failed; only flown route is shown


Map Options




Map Legend


Flown Route
Filed Route
Departure Airport
Arrival Airport
Navaid (VOR, NDB)
Fix

Horizontal Profiles

Position Reports

Time Latitude Longitude Heading Altitude Ground
Speed
26-Jan-18 21:11 34.196739 -118.351077 179 739ft 0kts
26-Jan-18 21:12 34.196739 -118.351077 179 739ft 0kts
26-Jan-18 21:13 34.196739 -118.351077 179 739ft 0kts
26-Jan-18 21:14 34.196739 -118.351077 179 739ft 0kts
26-Jan-18 21:15 34.196739 -118.351077 179 739ft 0kts
26-Jan-18 21:16 34.196739 -118.351077 179 739ft 0kts
26-Jan-18 21:17 34.196739 -118.351077 179 739ft 0kts
26-Jan-18 21:18 34.196739 -118.351077 179 739ft 0kts
26-Jan-18 21:19 34.196739 -118.351077 179 739ft 0kts
26-Jan-18 21:20 34.196739 -118.351077 179 739ft 0kts
26-Jan-18 21:21 34.196739 -118.351077 179 739ft 0kts
26-Jan-18 21:22 34.196739 -118.351077 179 739ft 0kts
26-Jan-18 21:23 34.196739 -118.351077 179 739ft 0kts
26-Jan-18 21:24 34.196739 -118.351077 179 739ft 0kts
26-Jan-18 21:25 34.196739 -118.351077 179 739ft 0kts
26-Jan-18 21:26 34.196739 -118.351077 179 739ft 0kts
26-Jan-18 21:27 34.196739 -118.351077 179 739ft 0kts
26-Jan-18 21:28 34.196739 -118.351077 179 739ft 0kts
26-Jan-18 21:29 34.197109 -118.350934 236 739ft 2kts
26-Jan-18 21:30 34.197161 -118.350659 270 739ft 0kts
26-Jan-18 21:31 34.197161 -118.350659 271 739ft 0kts
26-Jan-18 21:32 34.197161 -118.350659 271 739ft 0kts
26-Jan-18 21:33 34.197161 -118.350659 271 739ft 0kts
26-Jan-18 21:34 34.197161 -118.350659 271 739ft 0kts
26-Jan-18 21:35 34.197161 -118.350659 271 739ft 0kts
26-Jan-18 21:36 34.197161 -118.350659 271 739ft 0kts
26-Jan-18 21:37 34.197168 -118.351020 271 739ft 9kts
26-Jan-18 21:38 34.197206 -118.353465 270 739ft 0kts
26-Jan-18 21:39 34.197206 -118.353465 270 739ft 0kts
26-Jan-18 21:40 34.197206 -118.353465 270 739ft 0kts
26-Jan-18 21:41 34.197206 -118.353465 270 739ft 0kts
26-Jan-18 21:42 34.197206 -118.353465 270 739ft 0kts
26-Jan-18 21:43 34.197207 -118.355349 259 739ft 10kts
26-Jan-18 21:44 34.194542 -118.354915 157 739ft 10kts
26-Jan-18 21:45 34.194344 -118.354894 211 739ft 0kts
26-Jan-18 21:46 34.194344 -118.354894 211 739ft 0kts
26-Jan-18 21:47 34.194344 -118.354894 211 739ft 0kts
26-Jan-18 21:48 34.194204 -118.355465 349 739ft 0kts
26-Jan-18 21:49 34.199763 -118.357001 347 739ft 104kts
26-Jan-18 21:50 34.228441 -118.380628 286 2210ft 156kts
26-Jan-18 21:51 34.240333 -118.432820 285 3473ft 202kts
26-Jan-18 21:52 34.257653 -118.508848 286 5105ft 272kts
26-Jan-18 21:53 34.311026 -118.557421 12 7634ft 282kts
26-Jan-18 21:54 34.370841 -118.495569 50 9710ft 305kts
26-Jan-18 21:55 34.421931 -118.406724 54 11760ft 329kts
26-Jan-18 21:56 34.470427 -118.312760 52 13795ft 341kts
26-Jan-18 21:57 34.529063 -118.221964 44 15671ft 348kts
26-Jan-18 21:58 34.591578 -118.133093 45 17265ft 362kts
26-Jan-18 21:59 34.634115 -118.046598 62 18492ft 380kts
26-Jan-18 22:00 34.644773 -117.915872 74 19867ft 395kts
26-Jan-18 22:01 34.664011 -117.783947 79 21130ft 405kts
26-Jan-18 22:02 34.688104 -117.650883 70 22267ft 407kts
26-Jan-18 22:03 34.716528 -117.517528 68 23330ft 412kts
26-Jan-18 22:04 34.748225 -117.382916 68 24259ft 418kts
26-Jan-18 22:05 34.780396 -117.247928 65 25049ft 424kts
26-Jan-18 22:06 34.818333 -117.111745 65 25909ft 430kts
26-Jan-18 22:07 34.857041 -116.972957 65 26666ft 437kts
26-Jan-18 22:08 34.896274 -116.831972 65 27372ft 442kts
26-Jan-18 22:09 34.935898 -116.689492 65 28011ft 448kts
26-Jan-18 22:10 34.975870 -116.545716 64 28599ft 452kts
26-Jan-18 22:11 35.020836 -116.402885 45 29088ft 440kts
26-Jan-18 22:12 35.112342 -116.320070 25 29617ft 425kts
26-Jan-18 22:13 35.206704 -116.244671 25 30187ft 428kts
26-Jan-18 22:14 35.303593 -116.159245 43 30643ft 449kts
26-Jan-18 22:15 35.384330 -116.043272 39 31111ft 449kts
26-Jan-18 22:16 35.468594 -115.933039 38 31323ft 455kts
26-Jan-18 22:17 35.557075 -115.820586 37 31325ft 465kts
26-Jan-18 22:18 35.649074 -115.707071 38 31322ft 474kts
26-Jan-18 22:19 35.741764 -115.590484 38 31322ft 482kts
26-Jan-18 22:20 35.834127 -115.473629 38 31295ft 484kts
26-Jan-18 22:21 35.925596 -115.356851 38 31312ft 468kts
26-Jan-18 22:22 36.010265 -115.247299 38 31305ft 456kts
26-Jan-18 22:23 36.096042 -115.134806 48 31268ft 458kts
26-Jan-18 22:24 36.104777 -114.982256 107 31315ft 492kts
26-Jan-18 22:25 36.083262 -114.818888 88 31297ft 481kts
26-Jan-18 22:26 36.079842 -114.655046 85 31298ft 478kts
26-Jan-18 22:27 36.078777 -114.491536 85 31300ft 477kts
26-Jan-18 22:28 36.077854 -114.336423 86 31297ft 477kts
26-Jan-18 22:29 36.076231 -114.178222 86 31293ft 475kts
26-Jan-18 22:30 36.075009 -114.034077 85 31294ft 474kts
26-Jan-18 22:31 36.073500 -113.872275 85 31323ft 473kts
26-Jan-18 22:32 36.071773 -113.710190 85 31300ft 474kts
26-Jan-18 22:33 36.069816 -113.547582 85 31300ft 474kts
26-Jan-18 22:34 36.067626 -113.384672 85 31302ft 475kts
26-Jan-18 22:35 36.064884 -113.226640 86 31292ft 475kts
26-Jan-18 22:36 36.062195 -113.065678 86 31294ft 474kts
26-Jan-18 22:37 36.063557 -112.902208 69 31297ft 462kts
26-Jan-18 22:38 36.072306 -112.742239 84 31320ft 471kts
26-Jan-18 22:39 36.078169 -112.580656 83 31326ft 473kts
26-Jan-18 22:40 36.084335 -112.418630 81 31328ft 473kts
26-Jan-18 22:41 36.089701 -112.265315 81 31320ft 472kts
26-Jan-18 22:42 36.106043 -112.110533 52 31340ft 439kts
26-Jan-18 22:43 36.198782 -112.040657 6 31318ft 389kts
26-Jan-18 22:44 36.302623 -112.003102 6 31321ft 393kts
26-Jan-18 22:45 36.408148 -111.965165 6 31321ft 398kts
26-Jan-18 22:46 36.514729 -111.927005 6 31320ft 401kts
26-Jan-18 22:47 36.622009 -111.888776 6 31321ft 405kts
26-Jan-18 22:48 36.730094 -111.850359 6 31319ft 407kts
26-Jan-18 22:49 36.839336 -111.817240 347 31321ft 387kts
26-Jan-18 22:50 36.925119 -111.879337 316 31319ft 360kts
26-Jan-18 22:51 37.002967 -111.957601 316 31316ft 361kts
26-Jan-18 22:52 37.080999 -112.036188 323 31313ft 362kts
26-Jan-18 22:53 37.166948 -112.090348 338 31325ft 365kts
26-Jan-18 22:54 37.263080 -112.129571 339 31321ft 367kts
26-Jan-18 22:55 37.360003 -112.168987 339 31319ft 368kts
26-Jan-18 22:56 37.456678 -112.208415 339 31317ft 368kts
26-Jan-18 22:57 37.553955 -112.248197 339 31315ft 369kts
26-Jan-18 22:58 37.650616 -112.289096 337 31315ft 368kts
26-Jan-18 22:59 37.751260 -112.312873 350 31313ft 374kts
26-Jan-18 23:00 37.853884 -112.325499 349 31310ft 373kts
26-Jan-18 23:01 37.956307 -112.338941 347 31310ft 372kts
26-Jan-18 23:02 38.058261 -112.352438 346 31299ft 361kts
26-Jan-18 23:03 38.149507 -112.364674 346 31318ft 354kts
26-Jan-18 23:04 38.246247 -112.377692 346 31318ft 359kts
26-Jan-18 23:05 38.344898 -112.391006 346 31317ft 363kts
26-Jan-18 23:06 38.445580 -112.404627 346 31315ft 367kts
26-Jan-18 23:07 38.546904 -112.418383 346 31314ft 369kts
26-Jan-18 23:08 38.648467 -112.428262 353 31320ft 377kts
26-Jan-18 23:09 38.752512 -112.432955 348 31311ft 373kts
26-Jan-18 23:10 38.854834 -112.444743 347 31309ft 373kts
26-Jan-18 23:11 38.957641 -112.458139 346 31308ft 374kts
26-Jan-18 23:12 39.060724 -112.471928 346 31306ft 374kts
26-Jan-18 23:13 39.108720 -112.478390 346 31310ft 374kts
26-Jan-18 23:14 39.200542 -112.490787 347 30913ft 370kts
26-Jan-18 23:15 39.300021 -112.504154 347 28818ft 356kts
26-Jan-18 23:16 39.391134 -112.482307 9 26816ft 367kts
26-Jan-18 23:17 39.487625 -112.446210 6 24754ft 359kts
26-Jan-18 23:18 39.583786 -112.413943 6 22808ft 357kts
26-Jan-18 23:19 39.678885 -112.382819 7 20972ft 354kts
26-Jan-18 23:20 39.773434 -112.351992 7 19205ft 350kts
26-Jan-18 23:21 39.866485 -112.321626 8 17384ft 348kts
26-Jan-18 23:22 39.959937 -112.291057 8 15250ft 348kts
26-Jan-18 23:23 40.052294 -112.257421 26 13186ft 353kts
26-Jan-18 23:24 40.119319 -112.175071 45 11380ft 347kts
26-Jan-18 23:25 40.175737 -112.086575 54 10997ft 313kts
26-Jan-18 23:26 40.226844 -112.008371 43 10969ft 264kts
26-Jan-18 23:27 40.283023 -111.954065 1 11022ft 249kts
26-Jan-18 23:28 40.348930 -111.953237 7 11009ft 245kts
26-Jan-18 23:29 40.412969 -111.937898 10 10987ft 247kts
26-Jan-18 23:30 40.478593 -111.934999 355 10182ft 253kts
26-Jan-18 23:31 40.547419 -111.946846 346 9042ft 249kts
26-Jan-18 23:32 40.615857 -111.952942 352 7797ft 243kts
26-Jan-18 23:33 40.681541 -111.963408 356 6271ft 234kts
26-Jan-18 23:34 40.733446 -111.968859 357 5357ft 162kts
26-Jan-18 23:35 40.773014 -111.972973 357 4305ft 144kts
26-Jan-18 23:36 40.796157 -111.977299 324 4236ft 7kts
26-Jan-18 23:37 40.478371 -111.934980 355 10188ft 253kts
26-Jan-18 23:38 40.557799 -111.949750 350 8880ft 249kts
26-Jan-18 23:39 40.626134 -111.954491 352 7572ft 242kts
26-Jan-18 23:40 40.680738 -111.963310 356 6289ft 235kts
26-Jan-18 23:41 40.733923 -111.968910 357 5333ft 162kts
26-Jan-18 23:42 40.773468 -111.973026 357 4297ft 144kts
26-Jan-18 23:43 40.757067 -111.971196 357 4593ft 147kts
26-Jan-18 23:44 40.792360 -111.975186 354 4236ft 74kts
26-Jan-18 23:45 40.779006 -111.973649 357 4237ft 140kts
26-Jan-18 23:46 40.789836 -111.974869 354 4236ft 91kts
26-Jan-18 23:47 40.782899 -111.974097 355 4236ft 125kts
26-Jan-18 23:48 40.796176 -111.977317 324 4236ft 0kts
26-Jan-18 23:49 40.796176 -111.977317 324 4236ft 0kts
26-Jan-18 23:50 40.796176 -111.977317 324 4236ft 0kts
26-Jan-18 23:51 40.796176 -111.977317 324 4236ft 0kts

Navigation Log

Ident Type
Flight plan parsing failed, navigation log unavailable